Dale, Iowa
Current Conditions -  °F | °C
As of 7:35 PM on Saturday 25 Oct 2014 (Local Time) from KPRO Reporting Station
Clear Clear  
Wind Chill: 55°   Ceiling: Unl
Heat Index: 55°   Visibility: 10mi
Dew Point: 38°   Wind: 3mph
Humidity: 53%   Direction: 30°NNE
Pressure: 30.06"   Gusts: NA
Location:  41.5397°N, 94.299°W
Report Text: KPRO 260035Z AUTO 03003KT 10SM CLR 13/04 A3006 RMK AO2 T01290035
Loading
Personal Weather Stations






























Interactive Weather Map
Tropical Storm Tracking
New forecast layout! Learn more

10-Day Weather Forecast

Advertisements
Track Severe Weather on mobile